sensor_id;sensor_type;location;lat;lon;timestamp;P1;durP1;ratioP1;P2;durP2;ratioP2
79377;SDS011;68959;53.132;17.984;2023-06-04T00:02:20;7.20;;;3.60;;
79377;SDS011;68959;53.132;17.984;2023-06-04T00:04:46;10.60;;;3.50;;
79377;SDS011;68959;53.132;17.984;2023-06-04T00:07:12;10.00;;;3.30;;
79377;SDS011;68959;53.132;17.984;2023-06-04T00:09:38;10.50;;;3.80;;
79377;SDS011;68959;53.132;17.984;2023-06-04T00:12:05;8.70;;;3.50;;
79377;SDS011;68959;53.132;17.984;2023-06-04T00:14:31;10.00;;;3.60;;
79377;SDS011;68959;53.132;17.984;2023-06-04T00:16:57;9.70;;;3.60;;
79377;SDS011;68959;53.132;17.984;2023-06-04T00:19:23;9.60;;;3.60;;
79377;SDS011;68959;53.132;17.984;2023-06-04T00:21:49;9.30;;;3.60;;
79377;SDS011;68959;53.132;17.984;2023-06-04T00:24:15;11.60;;;3.80;;
79377;SDS011;68959;53.132;17.984;2023-06-04T00:26:42;9.50;;;3.20;;
79377;SDS011;68959;53.132;17.984;2023-06-04T00:29:08;8.30;;;3.60;;
79377;SDS011;68959;53.132;17.984;2023-06-04T00:31:34;8.40;;;3.00;;
79377;SDS011;68959;53.132;17.984;2023-06-04T00:34:01;8.40;;;3.30;;
79377;SDS011;68959;53.132;17.984;2023-06-04T00:36:29;8.30;;;3.50;;
79377;SDS011;68959;53.132;17.984;2023-06-04T00:38:55;7.90;;;3.50;;
79377;SDS011;68959;53.132;17.984;2023-06-04T00:41:21;11.40;;;3.70;;
79377;SDS011;68959;53.132;17.984;2023-06-04T00:43:47;7.90;;;3.40;;
79377;SDS011;68959;53.132;17.984;2023-06-04T00:46:22;7.80;;;3.50;;
79377;SDS011;68959;53.132;17.984;2023-06-04T00:48:51;8.00;;;3.80;;
79377;SDS011;68959;53.132;17.984;2023-06-04T00:51:18;9.10;;;3.80;;
79377;SDS011;68959;53.132;17.984;2023-06-04T00:53:45;10.60;;;3.50;;
79377;SDS011;68959;53.132;17.984;2023-06-04T00:56:12;8.80;;;3.40;;
79377;SDS011;68959;53.132;17.984;2023-06-04T00:58:39;6.70;;;3.60;;
79377;SDS011;68959;53.132;17.984;2023-06-04T01:01:08;8.30;;;3.60;;
79377;SDS011;68959;53.132;17.984;2023-06-04T01:03:51;6.10;;;3.30;;
79377;SDS011;68959;53.132;17.984;2023-06-04T01:06:37;7.80;;;3.60;;
79377;SDS011;68959;53.132;17.984;2023-06-04T01:09:05;12.00;;;3.80;;
79377;SDS011;68959;53.132;17.984;2023-06-04T01:11:35;7.60;;;3.40;;
79377;SDS011;68959;53.132;17.984;2023-06-04T01:14:05;13.40;;;3.40;;
79377;SDS011;68959;53.132;17.984;2023-06-04T01:16:57;11.40;;;3.60;;
79377;SDS011;68959;53.132;17.984;2023-06-04T01:19:40;7.70;;;3.40;;
79377;SDS011;68959;53.132;17.984;2023-06-04T01:22:28;9.00;;;3.70;;
79377;SDS011;68959;53.132;17.984;2023-06-04T01:25:03;6.20;;;3.40;;
79377;SDS011;68959;53.132;17.984;2023-06-04T01:27:31;10.60;;;4.00;;
79377;SDS011;68959;53.132;17.984;2023-06-04T01:29:58;8.20;;;3.60;;
79377;SDS011;68959;53.132;17.984;2023-06-04T01:32:26;7.70;;;3.70;;
79377;SDS011;68959;53.132;17.984;2023-06-04T01:34:52;8.00;;;3.40;;
79377;SDS011;68959;53.132;17.984;2023-06-04T01:37:18;8.70;;;3.40;;
79377;SDS011;68959;53.132;17.984;2023-06-04T01:39:44;9.00;;;3.30;;
79377;SDS011;68959;53.132;17.984;2023-06-04T01:42:10;9.80;;;4.00;;
79377;SDS011;68959;53.132;17.984;2023-06-04T01:44:36;10.30;;;4.40;;
79377;SDS011;68959;53.132;17.984;2023-06-04T01:47:02;8.30;;;3.90;;
79377;SDS011;68959;53.132;17.984;2023-06-04T01:49:28;11.10;;;4.00;;
79377;SDS011;68959;53.132;17.984;2023-06-04T01:51:54;9.00;;;3.80;;
79377;SDS011;68959;53.132;17.984;2023-06-04T01:54:22;6.90;;;3.70;;
79377;SDS011;68959;53.132;17.984;2023-06-04T01:56:48;11.70;;;3.10;;
79377;SDS011;68959;53.132;17.984;2023-06-04T01:59:14;9.00;;;3.20;;
79377;SDS011;68959;53.132;17.984;2023-06-04T02:01:41;8.30;;;3.50;;
79377;SDS011;68959;53.132;17.984;2023-06-04T02:04:07;9.00;;;3.70;;
79377;SDS011;68959;53.132;17.984;2023-06-04T02:06:33;8.10;;;3.50;;
79377;SDS011;68959;53.132;17.984;2023-06-04T02:08:59;9.70;;;3.80;;
79377;SDS011;68959;53.132;17.984;2023-06-04T02:11:27;8.30;;;3.40;;
79377;SDS011;68959;53.132;17.984;2023-06-04T02:13:53;17.80;;;4.30;;
79377;SDS011;68959;53.132;17.984;2023-06-04T02:16:19;14.50;;;4.30;;
79377;SDS011;68959;53.132;17.984;2023-06-04T02:18:45;13.60;;;4.30;;
79377;SDS011;68959;53.132;17.984;2023-06-04T02:21:11;15.00;;;4.00;;
79377;SDS011;68959;53.132;17.984;2023-06-04T02:23:38;15.90;;;3.60;;
79377;SDS011;68959;53.132;17.984;2023-06-04T02:26:03;7.70;;;3.60;;
79377;SDS011;68959;53.132;17.984;2023-06-04T02:28:30;7.80;;;3.50;;
79377;SDS011;68959;53.132;17.984;2023-06-04T02:30:56;9.90;;;3.80;;
79377;SDS011;68959;53.132;17.984;2023-06-04T02:33:22;12.20;;;3.90;;
79377;SDS011;68959;53.132;17.984;2023-06-04T02:35:49;8.80;;;4.00;;
79377;SDS011;68959;53.132;17.984;2023-06-04T02:38:15;10.30;;;3.70;;
79377;SDS011;68959;53.132;17.984;2023-06-04T02:40:41;6.70;;;3.50;;
79377;SDS011;68959;53.132;17.984;2023-06-04T02:43:08;7.60;;;4.00;;
79377;SDS011;68959;53.132;17.984;2023-06-04T02:45:34;11.60;;;4.20;;
79377;SDS011;68959;53.132;17.984;2023-06-04T02:48:00;8.50;;;3.60;;
79377;SDS011;68959;53.132;17.984;2023-06-04T02:50:26;14.00;;;4.00;;
79377;SDS011;68959;53.132;17.984;2023-06-04T02:52:54;13.80;;;4.30;;
79377;SDS011;68959;53.132;17.984;2023-06-04T02:55:20;9.10;;;3.70;;
79377;SDS011;68959;53.132;17.984;2023-06-04T02:57:46;11.60;;;4.20;;
79377;SDS011;68959;53.132;17.984;2023-06-04T03:00:14;8.20;;;4.10;;
79377;SDS011;68959;53.132;17.984;2023-06-04T03:02:45;9.00;;;4.00;;
79377;SDS011;68959;53.132;17.984;2023-06-04T03:05:12;8.70;;;4.20;;
79377;SDS011;68959;53.132;17.984;2023-06-04T03:07:41;8.00;;;3.90;;
79377;SDS011;68959;53.132;17.984;2023-06-04T03:10:09;8.80;;;4.20;;
79377;SDS011;68959;53.132;17.984;2023-06-04T03:12:36;6.40;;;4.00;;
79377;SDS011;68959;53.132;17.984;2023-06-04T03:15:02;7.30;;;4.00;;
79377;SDS011;68959;53.132;17.984;2023-06-04T03:17:30;11.70;;;4.20;;
79377;SDS011;68959;53.132;17.984;2023-06-04T03:19:57;9.00;;;4.50;;
79377;SDS011;68959;53.132;17.984;2023-06-04T03:22:23;10.20;;;5.40;;
79377;SDS011;68959;53.132;17.984;2023-06-04T03:24:50;9.50;;;4.80;;
79377;SDS011;68959;53.132;17.984;2023-06-04T03:27:18;13.00;;;4.10;;
79377;SDS011;68959;53.132;17.984;2023-06-04T03:29:45;10.20;;;4.70;;
79377;SDS011;68959;53.132;17.984;2023-06-04T03:32:12;9.10;;;4.40;;
79377;SDS011;68959;53.132;17.984;2023-06-04T03:34:38;7.80;;;4.60;;
79377;SDS011;68959;53.132;17.984;2023-06-04T03:37:04;14.20;;;5.00;;
79377;SDS011;68959;53.132;17.984;2023-06-04T03:39:31;13.30;;;4.30;;
79377;SDS011;68959;53.132;17.984;2023-06-04T03:41:59;8.20;;;4.50;;
79377;SDS011;68959;53.132;17.984;2023-06-04T03:44:25;7.90;;;4.30;;
79377;SDS011;68959;53.132;17.984;2023-06-04T03:46:52;9.20;;;5.10;;
79377;SDS011;68959;53.132;17.984;2023-06-04T03:49:18;9.40;;;4.70;;
79377;SDS011;68959;53.132;17.984;2023-06-04T03:51:47;9.60;;;5.10;;
79377;SDS011;68959;53.132;17.984;2023-06-04T03:54:14;12.20;;;5.20;;
79377;SDS011;68959;53.132;17.984;2023-06-04T03:56:46;10.30;;;5.10;;
79377;SDS011;68959;53.132;17.984;2023-06-04T03:59:12;14.60;;;5.50;;
79377;SDS011;68959;53.132;17.984;2023-06-04T04:01:38;10.30;;;4.90;;
79377;SDS011;68959;53.132;17.984;2023-06-04T04:04:05;8.60;;;4.60;;
79377;SDS011;68959;53.132;17.984;2023-06-04T04:06:32;7.80;;;4.30;;
79377;SDS011;68959;53.132;17.984;2023-06-04T04:08:58;13.50;;;4.40;;
79377;SDS011;68959;53.132;17.984;2023-06-04T04:11:24;9.40;;;4.90;;
79377;SDS011;68959;53.132;17.984;2023-06-04T04:13:51;13.30;;;6.50;;
79377;SDS011;68959;53.132;17.984;2023-06-04T04:16:18;12.80;;;6.10;;
79377;SDS011;68959;53.132;17.984;2023-06-04T04:18:44;13.30;;;6.30;;
79377;SDS011;68959;53.132;17.984;2023-06-04T04:21:10;14.50;;;6.90;;
79377;SDS011;68959;53.132;17.984;2023-06-04T04:23:38;12.90;;;6.50;;
79377;SDS011;68959;53.132;17.984;2023-06-04T04:26:08;11.10;;;5.00;;
79377;SDS011;68959;53.132;17.984;2023-06-04T04:28:34;13.70;;;6.00;;
79377;SDS011;68959;53.132;17.984;2023-06-04T04:31:00;13.10;;;5.40;;
79377;SDS011;68959;53.132;17.984;2023-06-04T04:33:32;11.20;;;5.70;;
79377;SDS011;68959;53.132;17.984;2023-06-04T04:36:03;15.80;;;6.20;;
79377;SDS011;68959;53.132;17.984;2023-06-04T04:38:30;17.70;;;5.60;;
79377;SDS011;68959;53.132;17.984;2023-06-04T04:41:01;9.90;;;5.90;;
79377;SDS011;68959;53.132;17.984;2023-06-04T04:43:30;14.10;;;5.50;;
79377;SDS011;68959;53.132;17.984;2023-06-04T04:45:59;15.50;;;6.00;;
79377;SDS011;68959;53.132;17.984;2023-06-04T04:48:27;15.10;;;5.50;;
79377;SDS011;68959;53.132;17.984;2023-06-04T04:50:53;13.90;;;5.30;;
79377;SDS011;68959;53.132;17.984;2023-06-04T04:53:20;13.30;;;5.40;;
79377;SDS011;68959;53.132;17.984;2023-06-04T04:55:46;10.40;;;5.10;;
79377;SDS011;68959;53.132;17.984;2023-06-04T04:58:12;10.80;;;4.20;;
79377;SDS011;68959;53.132;17.984;2023-06-04T05:00:39;9.90;;;4.60;;
79377;SDS011;68959;53.132;17.984;2023-06-04T05:03:05;9.00;;;4.40;;
79377;SDS011;68959;53.132;17.984;2023-06-04T05:05:32;9.90;;;4.40;;
79377;SDS011;68959;53.132;17.984;2023-06-04T05:07:59;10.70;;;4.40;;
79377;SDS011;68959;53.132;17.984;2023-06-04T05:10:30;10.40;;;5.10;;
79377;SDS011;68959;53.132;17.984;2023-06-04T05:12:57;9.60;;;4.70;;
79377;SDS011;68959;53.132;17.984;2023-06-04T05:15:28;10.50;;;4.90;;
79377;SDS011;68959;53.132;17.984;2023-06-04T05:17:55;9.20;;;4.00;;
79377;SDS011;68959;53.132;17.984;2023-06-04T05:20:22;8.60;;;4.70;;
79377;SDS011;68959;53.132;17.984;2023-06-04T05:22:48;12.50;;;4.80;;
79377;SDS011;68959;53.132;17.984;2023-06-04T05:25:16;11.60;;;5.10;;
79377;SDS011;68959;53.132;17.984;2023-06-04T05:27:42;10.90;;;4.40;;
79377;SDS011;68959;53.132;17.984;2023-06-04T05:30:09;10.40;;;4.60;;
79377;SDS011;68959;53.132;17.984;2023-06-04T05:32:36;14.40;;;4.70;;
79377;SDS011;68959;53.132;17.984;2023-06-04T05:35:06;9.80;;;4.40;;
79377;SDS011;68959;53.132;17.984;2023-06-04T05:37:34;11.70;;;4.50;;
79377;SDS011;68959;53.132;17.984;2023-06-04T05:40:01;7.30;;;3.50;;
79377;SDS011;68959;53.132;17.984;2023-06-04T05:42:32;11.90;;;4.00;;
79377;SDS011;68959;53.132;17.984;2023-06-04T05:44:58;12.00;;;4.60;;
79377;SDS011;68959;53.132;17.984;2023-06-04T05:47:24;7.50;;;4.20;;
79377;SDS011;68959;53.132;17.984;2023-06-04T05:49:51;8.30;;;4.20;;
79377;SDS011;68959;53.132;17.984;2023-06-04T05:52:16;14.50;;;4.20;;
79377;SDS011;68959;53.132;17.984;2023-06-04T05:54:43;9.70;;;3.90;;
79377;SDS011;68959;53.132;17.984;2023-06-04T05:57:09;9.00;;;3.60;;
79377;SDS011;68959;53.132;17.984;2023-06-04T05:59:35;5.50;;;3.20;;
79377;SDS011;68959;53.132;17.984;2023-06-04T06:02:03;7.60;;;3.00;;
79377;SDS011;68959;53.132;17.984;2023-06-04T06:04:29;7.20;;;3.30;;
79377;SDS011;68959;53.132;17.984;2023-06-04T06:06:56;5.90;;;3.70;;
79377;SDS011;68959;53.132;17.984;2023-06-04T06:09:23;7.90;;;3.10;;
79377;SDS011;68959;53.132;17.984;2023-06-04T06:11:49;6.00;;;3.20;;
79377;SDS011;68959;53.132;17.984;2023-06-04T06:14:15;7.30;;;3.20;;
79377;SDS011;68959;53.132;17.984;2023-06-04T06:16:41;6.80;;;3.00;;
79377;SDS011;68959;53.132;17.984;2023-06-04T06:19:07;5.20;;;2.40;;
79377;SDS011;68959;53.132;17.984;2023-06-04T06:21:33;5.20;;;2.80;;
79377;SDS011;68959;53.132;17.984;2023-06-04T06:23:59;4.00;;;2.20;;
79377;SDS011;68959;53.132;17.984;2023-06-04T06:26:25;7.60;;;2.50;;
79377;SDS011;68959;53.132;17.984;2023-06-04T06:28:55;5.40;;;2.20;;
79377;SDS011;68959;53.132;17.984;2023-06-04T06:31:22;6.70;;;2.20;;
79377;SDS011;68959;53.132;17.984;2023-06-04T06:33:48;3.40;;;1.90;;
79377;SDS011;68959;53.132;17.984;2023-06-04T06:36:13;3.80;;;2.30;;
79377;SDS011;68959;53.132;17.984;2023-06-04T06:38:39;5.40;;;2.10;;
79377;SDS011;68959;53.132;17.984;2023-06-04T06:41:06;3.90;;;1.90;;
79377;SDS011;68959;53.132;17.984;2023-06-04T06:43:33;3.00;;;1.80;;
79377;SDS011;68959;53.132;17.984;2023-06-04T06:45:59;4.00;;;2.00;;
79377;SDS011;68959;53.132;17.984;2023-06-04T06:48:26;5.90;;;2.10;;
79377;SDS011;68959;53.132;17.984;2023-06-04T06:50:51;5.30;;;1.90;;
79377;SDS011;68959;53.132;17.984;2023-06-04T06:53:19;4.50;;;1.80;;
79377;SDS011;68959;53.132;17.984;2023-06-04T06:55:45;2.70;;;1.70;;
79377;SDS011;68959;53.132;17.984;2023-06-04T06:58:11;4.70;;;1.80;;
79377;SDS011;68959;53.132;17.984;2023-06-04T07:00:37;4.20;;;2.00;;
79377;SDS011;68959;53.132;17.984;2023-06-04T07:03:03;4.60;;;1.50;;
79377;SDS011;68959;53.132;17.984;2023-06-04T07:05:30;2.80;;;1.40;;
79377;SDS011;68959;53.132;17.984;2023-06-04T07:07:56;3.60;;;1.80;;
79377;SDS011;68959;53.132;17.984;2023-06-04T07:10:26;4.80;;;2.00;;
79377;SDS011;68959;53.132;17.984;2023-06-04T07:12:53;2.90;;;1.80;;
79377;SDS011;68959;53.132;17.984;2023-06-04T07:15:19;4.70;;;1.80;;
79377;SDS011;68959;53.132;17.984;2023-06-04T07:17:45;4.50;;;1.60;;
79377;SDS011;68959;53.132;17.984;2023-06-04T07:20:11;3.80;;;1.90;;
79377;SDS011;68959;53.132;17.984;2023-06-04T07:22:37;5.80;;;1.90;;
79377;SDS011;68959;53.132;17.984;2023-06-04T07:25:04;5.30;;;1.50;;
79377;SDS011;68959;53.132;17.984;2023-06-04T07:27:31;2.30;;;1.50;;
79377;SDS011;68959;53.132;17.984;2023-06-04T07:29:57;3.90;;;2.00;;
79377;SDS011;68959;53.132;17.984;2023-06-04T07:32:22;5.50;;;1.80;;
79377;SDS011;68959;53.132;17.984;2023-06-04T07:34:48;4.10;;;1.80;;
79377;SDS011;68959;53.132;17.984;2023-06-04T07:37:14;4.50;;;2.30;;
79377;SDS011;68959;53.132;17.984;2023-06-04T07:39:41;4.00;;;1.80;;
79377;SDS011;68959;53.132;17.984;2023-06-04T07:42:07;3.10;;;1.80;;
79377;SDS011;68959;53.132;17.984;2023-06-04T07:44:33;7.90;;;2.00;;
79377;SDS011;68959;53.132;17.984;2023-06-04T07:47:00;7.70;;;2.80;;
79377;SDS011;68959;53.132;17.984;2023-06-04T07:49:26;4.80;;;2.70;;
79377;SDS011;68959;53.132;17.984;2023-06-04T07:51:52;3.40;;;1.60;;
79377;SDS011;68959;53.132;17.984;2023-06-04T07:54:18;15.10;;;4.00;;
79377;SDS011;68959;53.132;17.984;2023-06-04T07:56:44;11.90;;;4.80;;
79377;SDS011;68959;53.132;17.984;2023-06-04T07:59:10;6.20;;;2.50;;
79377;SDS011;68959;53.132;17.984;2023-06-04T08:01:36;6.80;;;3.60;;
79377;SDS011;68959;53.132;17.984;2023-06-04T08:04:02;9.00;;;2.10;;
79377;SDS011;68959;53.132;17.984;2023-06-04T08:06:28;6.60;;;2.70;;
79377;SDS011;68959;53.132;17.984;2023-06-04T08:08:54;3.50;;;1.80;;
79377;SDS011;68959;53.132;17.984;2023-06-04T08:11:20;4.40;;;1.70;;
79377;SDS011;68959;53.132;17.984;2023-06-04T08:13:48;3.20;;;1.90;;
79377;SDS011;68959;53.132;17.984;2023-06-04T08:16:14;3.40;;;1.50;;
79377;SDS011;68959;53.132;17.984;2023-06-04T08:18:40;4.30;;;1.50;;
79377;SDS011;68959;53.132;17.984;2023-06-04T08:21:10;4.80;;;1.50;;
79377;SDS011;68959;53.132;17.984;2023-06-04T08:23:37;2.50;;;1.50;;
79377;SDS011;68959;53.132;17.984;2023-06-04T08:26:03;2.80;;;1.50;;
79377;SDS011;68959;53.132;17.984;2023-06-04T08:28:29;3.90;;;1.70;;
79377;SDS011;68959;53.132;17.984;2023-06-04T08:30:55;3.00;;;1.70;;
79377;SDS011;68959;53.132;17.984;2023-06-04T08:33:21;4.30;;;1.50;;
79377;SDS011;68959;53.132;17.984;2023-06-04T08:35:47;4.40;;;1.70;;
79377;SDS011;68959;53.132;17.984;2023-06-04T08:38:13;2.40;;;1.40;;
79377;SDS011;68959;53.132;17.984;2023-06-04T08:40:39;4.20;;;1.70;;
79377;SDS011;68959;53.132;17.984;2023-06-04T08:43:04;2.50;;;1.50;;
79377;SDS011;68959;53.132;17.984;2023-06-04T08:45:32;3.50;;;1.80;;
79377;SDS011;68959;53.132;17.984;2023-06-04T08:47:58;4.40;;;1.50;;
79377;SDS011;68959;53.132;17.984;2023-06-04T08:50:26;3.40;;;1.40;;
79377;SDS011;68959;53.132;17.984;2023-06-04T08:52:52;3.10;;;1.70;;
79377;SDS011;68959;53.132;17.984;2023-06-04T08:55:20;2.70;;;1.60;;
79377;SDS011;68959;53.132;17.984;2023-06-04T08:57:47;4.30;;;1.60;;
79377;SDS011;68959;53.132;17.984;2023-06-04T09:00:16;3.90;;;1.80;;
79377;SDS011;68959;53.132;17.984;2023-06-04T09:02:44;5.00;;;1.80;;
79377;SDS011;68959;53.132;17.984;2023-06-04T09:05:16;3.50;;;1.70;;
79377;SDS011;68959;53.132;17.984;2023-06-04T09:07:47;5.10;;;2.00;;
79377;SDS011;68959;53.132;17.984;2023-06-04T09:10:18;3.70;;;1.80;;
79377;SDS011;68959;53.132;17.984;2023-06-04T09:12:46;3.10;;;1.60;;
79377;SDS011;68959;53.132;17.984;2023-06-04T09:15:13;4.10;;;1.60;;
79377;SDS011;68959;53.132;17.984;2023-06-04T09:17:39;2.30;;;1.60;;
79377;SDS011;68959;53.132;17.984;2023-06-04T09:20:07;2.40;;;1.70;;
79377;SDS011;68959;53.132;17.984;2023-06-04T09:25:03;3.50;;;1.80;;
79377;SDS011;68959;53.132;17.984;2023-06-04T09:27:38;6.10;;;1.80;;
79377;SDS011;68959;53.132;17.984;2023-06-04T09:30:06;4.10;;;1.70;;
79377;SDS011;68959;53.132;17.984;2023-06-04T09:32:35;2.80;;;1.60;;
79377;SDS011;68959;53.132;17.984;2023-06-04T09:35:11;5.30;;;1.80;;
79377;SDS011;68959;53.132;17.984;2023-06-04T09:37:40;4.60;;;1.50;;
79377;SDS011;68959;53.132;17.984;2023-06-04T09:40:08;2.20;;;1.50;;
79377;SDS011;68959;53.132;17.984;2023-06-04T09:42:45;4.50;;;1.60;;
79377;SDS011;68959;53.132;17.984;2023-06-04T09:45:26;4.40;;;1.60;;
79377;SDS011;68959;53.132;17.984;2023-06-04T09:47:53;3.80;;;1.60;;
79377;SDS011;68959;53.132;17.984;2023-06-04T09:50:24;7.00;;;2.60;;
79377;SDS011;68959;53.132;17.984;2023-06-04T09:53:14;4.10;;;1.70;;
79377;SDS011;68959;53.132;17.984;2023-06-04T09:55:57;4.60;;;2.20;;
79377;SDS011;68959;53.132;17.984;2023-06-04T09:58:28;6.60;;;1.70;;
79377;SDS011;68959;53.132;17.984;2023-06-04T10:00:55;4.60;;;1.80;;
79377;SDS011;68959;53.132;17.984;2023-06-04T10:03:25;4.50;;;1.60;;
79377;SDS011;68959;53.132;17.984;2023-06-04T10:05:56;10.70;;;2.40;;
79377;SDS011;68959;53.132;17.984;2023-06-04T10:08:23;7.70;;;3.00;;
79377;SDS011;68959;53.132;17.984;2023-06-04T10:10:56;4.60;;;2.30;;
79377;SDS011;68959;53.132;17.984;2023-06-04T10:13:26;4.50;;;1.80;;
79377;SDS011;68959;53.132;17.984;2023-06-04T10:15:56;5.40;;;2.70;;
79377;SDS011;68959;53.132;17.984;2023-06-04T10:18:24;7.90;;;2.60;;
79377;SDS011;68959;53.132;17.984;2023-06-04T10:20:52;5.50;;;1.90;;
79377;SDS011;68959;53.132;17.984;2023-06-04T10:23:21;4.40;;;1.70;;
79377;SDS011;68959;53.132;17.984;2023-06-04T10:25:51;5.30;;;2.10;;
79377;SDS011;68959;53.132;17.984;2023-06-04T10:28:18;5.00;;;2.80;;
79377;SDS011;68959;53.132;17.984;2023-06-04T10:30:46;8.40;;;2.00;;
79377;SDS011;68959;53.132;17.984;2023-06-04T10:33:19;7.40;;;2.00;;
79377;SDS011;68959;53.132;17.984;2023-06-04T10:35:50;3.90;;;1.80;;
79377;SDS011;68959;53.132;17.984;2023-06-04T10:38:18;2.90;;;1.60;;
79377;SDS011;68959;53.132;17.984;2023-06-04T10:40:47;4.70;;;2.10;;
79377;SDS011;68959;53.132;17.984;2023-06-04T10:43:13;3.30;;;1.90;;
79377;SDS011;68959;53.132;17.984;2023-06-04T10:45:44;5.40;;;1.90;;
79377;SDS011;68959;53.132;17.984;2023-06-04T10:48:11;5.00;;;1.90;;
79377;SDS011;68959;53.132;17.984;2023-06-04T10:50:48;6.00;;;2.40;;
79377;SDS011;68959;53.132;17.984;2023-06-04T10:53:16;6.10;;;2.00;;
79377;SDS011;68959;53.132;17.984;2023-06-04T10:55:46;3.90;;;2.20;;
79377;SDS011;68959;53.132;17.984;2023-06-04T10:58:13;7.10;;;2.30;;
79377;SDS011;68959;53.132;17.984;2023-06-04T11:00:42;2.80;;;1.60;;
79377;SDS011;68959;53.132;17.984;2023-06-04T11:03:11;5.70;;;1.80;;
79377;SDS011;68959;53.132;17.984;2023-06-04T11:05:39;2.90;;;1.70;;
79377;SDS011;68959;53.132;17.984;2023-06-04T11:08:06;4.40;;;1.50;;
79377;SDS011;68959;53.132;17.984;2023-06-04T11:10:35;3.50;;;1.60;;
79377;SDS011;68959;53.132;17.984;2023-06-04T11:13:03;4.60;;;1.50;;
79377;SDS011;68959;53.132;17.984;2023-06-04T11:16:04;4.20;;;1.70;;
79377;SDS011;68959;53.132;17.984;2023-06-04T11:18:23;3.00;;;1.60;;
79377;SDS011;68959;53.132;17.984;2023-06-04T11:20:50;2.40;;;1.50;;
79377;SDS011;68959;53.132;17.984;2023-06-04T11:23:24;4.90;;;1.70;;
79377;SDS011;68959;53.132;17.984;2023-06-04T11:25:53;2.60;;;1.50;;
79377;SDS011;68959;53.132;17.984;2023-06-04T11:28:20;3.70;;;1.50;;
79377;SDS011;68959;53.132;17.984;2023-06-04T11:30:56;3.90;;;1.40;;
79377;SDS011;68959;53.132;17.984;2023-06-04T11:33:29;3.30;;;1.60;;
79377;SDS011;68959;53.132;17.984;2023-06-04T11:35:55;3.60;;;1.50;;
79377;SDS011;68959;53.132;17.984;2023-06-04T11:38:21;4.20;;;1.60;;
79377;SDS011;68959;53.132;17.984;2023-06-04T11:40:57;3.60;;;1.70;;
79377;SDS011;68959;53.132;17.984;2023-06-04T11:43:24;2.70;;;1.60;;
79377;SDS011;68959;53.132;17.984;2023-06-04T11:45:51;2.40;;;1.50;;
79377;SDS011;68959;53.132;17.984;2023-06-04T11:48:17;4.30;;;1.60;;
79377;SDS011;68959;53.132;17.984;2023-06-04T11:50:43;4.40;;;1.80;;
79377;SDS011;68959;53.132;17.984;2023-06-04T11:53:09;4.30;;;1.60;;
79377;SDS011;68959;53.132;17.984;2023-06-04T11:55:35;3.20;;;1.80;;
79377;SDS011;68959;53.132;17.984;2023-06-04T11:58:01;3.70;;;1.70;;
79377;SDS011;68959;53.132;17.984;2023-06-04T12:00:28;4.60;;;1.80;;
79377;SDS011;68959;53.132;17.984;2023-06-04T12:02:55;4.70;;;1.60;;
79377;SDS011;68959;53.132;17.984;2023-06-04T12:05:22;5.30;;;1.60;;
79377;SDS011;68959;53.132;17.984;2023-06-04T12:08:03;2.80;;;1.40;;
79377;SDS011;68959;53.132;17.984;2023-06-04T12:13:04;4.50;;;1.40;;
79377;SDS011;68959;53.132;17.984;2023-06-04T12:15:30;4.70;;;1.70;;
79377;SDS011;68959;53.132;17.984;2023-06-04T12:17:57;2.90;;;1.70;;
79377;SDS011;68959;53.132;17.984;2023-06-04T12:20:36;4.50;;;1.50;;
79377;SDS011;68959;53.132;17.984;2023-06-04T12:23:07;4.20;;;1.50;;
79377;SDS011;68959;53.132;17.984;2023-06-04T12:25:34;2.80;;;1.60;;
79377;SDS011;68959;53.132;17.984;2023-06-04T12:28:02;3.90;;;1.60;;
79377;SDS011;68959;53.132;17.984;2023-06-04T12:30:37;8.40;;;1.70;;
79377;SDS011;68959;53.132;17.984;2023-06-04T12:33:04;2.70;;;1.60;;
79377;SDS011;68959;53.132;17.984;2023-06-04T12:35:30;8.00;;;2.00;;
79377;SDS011;68959;53.132;17.984;2023-06-04T12:37:56;2.10;;;1.50;;
79377;SDS011;68959;53.132;17.984;2023-06-04T12:40:22;3.60;;;1.60;;
79377;SDS011;68959;53.132;17.984;2023-06-04T12:42:49;4.20;;;1.40;;
79377;SDS011;68959;53.132;17.984;2023-06-04T12:45:16;2.10;;;1.40;;
79377;SDS011;68959;53.132;17.984;2023-06-04T12:47:43;2.40;;;1.60;;
79377;SDS011;68959;53.132;17.984;2023-06-04T12:50:09;5.00;;;1.80;;
79377;SDS011;68959;53.132;17.984;2023-06-04T12:52:35;3.80;;;1.90;;
79377;SDS011;68959;53.132;17.984;2023-06-04T12:55:02;3.80;;;1.70;;
79377;SDS011;68959;53.132;17.984;2023-06-04T12:57:28;3.80;;;1.60;;
79377;SDS011;68959;53.132;17.984;2023-06-04T12:59:54;5.50;;;2.50;;
79377;SDS011;68959;53.132;17.984;2023-06-04T13:02:21;3.90;;;1.60;;
79377;SDS011;68959;53.132;17.984;2023-06-04T13:04:47;5.00;;;1.80;;
79377;SDS011;68959;53.132;17.984;2023-06-04T13:07:12;5.20;;;2.40;;
79377;SDS011;68959;53.132;17.984;2023-06-04T13:09:38;6.00;;;1.80;;
79377;SDS011;68959;53.132;17.984;2023-06-04T13:12:05;5.20;;;2.00;;
79377;SDS011;68959;53.132;17.984;2023-06-04T13:14:35;6.00;;;1.80;;
79377;SDS011;68959;53.132;17.984;2023-06-04T13:17:01;4.70;;;1.60;;
79377;SDS011;68959;53.132;17.984;2023-06-04T13:19:27;6.70;;;1.70;;
79377;SDS011;68959;53.132;17.984;2023-06-04T13:21:53;5.50;;;2.20;;
79377;SDS011;68959;53.132;17.984;2023-06-04T13:24:19;2.40;;;1.50;;
79377;SDS011;68959;53.132;17.984;2023-06-04T13:26:45;3.70;;;1.70;;
79377;SDS011;68959;53.132;17.984;2023-06-04T13:29:10;4.90;;;1.90;;
79377;SDS011;68959;53.132;17.984;2023-06-04T13:31:37;4.60;;;1.50;;
79377;SDS011;68959;53.132;17.984;2023-06-04T13:34:04;6.20;;;1.60;;
79377;SDS011;68959;53.132;17.984;2023-06-04T13:36:30;2.40;;;1.60;;
79377;SDS011;68959;53.132;17.984;2023-06-04T13:38:56;3.00;;;1.70;;
79377;SDS011;68959;53.132;17.984;2023-06-04T13:41:22;4.40;;;2.10;;
79377;SDS011;68959;53.132;17.984;2023-06-04T13:43:48;3.80;;;2.00;;
79377;SDS011;68959;53.132;17.984;2023-06-04T13:46:14;4.60;;;2.80;;
79377;SDS011;68959;53.132;17.984;2023-06-04T13:48:41;4.00;;;1.40;;
79377;SDS011;68959;53.132;17.984;2023-06-04T13:51:07;10.70;;;2.00;;
79377;SDS011;68959;53.132;17.984;2023-06-04T13:53:33;5.60;;;2.20;;
79377;SDS011;68959;53.132;17.984;2023-06-04T13:55:59;8.10;;;1.90;;
79377;SDS011;68959;53.132;17.984;2023-06-04T13:58:25;3.70;;;2.70;;
79377;SDS011;68959;53.132;17.984;2023-06-04T14:00:51;5.10;;;2.00;;
79377;SDS011;68959;53.132;17.984;2023-06-04T14:03:18;3.60;;;2.20;;
79377;SDS011;68959;53.132;17.984;2023-06-04T14:05:44;3.80;;;1.90;;
79377;SDS011;68959;53.132;17.984;2023-06-04T14:08:10;8.20;;;2.10;;
79377;SDS011;68959;53.132;17.984;2023-06-04T14:10:38;10.90;;;1.80;;
79377;SDS011;68959;53.132;17.984;2023-06-04T14:13:07;2.60;;;1.70;;
79377;SDS011;68959;53.132;17.984;2023-06-04T14:15:34;4.40;;;2.00;;
79377;SDS011;68959;53.132;17.984;2023-06-04T14:18:00;3.50;;;1.70;;
79377;SDS011;68959;53.132;17.984;2023-06-04T14:20:26;4.30;;;2.10;;
79377;SDS011;68959;53.132;17.984;2023-06-04T14:22:52;5.20;;;2.50;;
79377;SDS011;68959;53.132;17.984;2023-06-04T14:25:18;5.00;;;2.30;;
79377;SDS011;68959;53.132;17.984;2023-06-04T14:27:44;4.40;;;1.70;;
79377;SDS011;68959;53.132;17.984;2023-06-04T14:30:10;7.60;;;3.00;;
79377;SDS011;68959;53.132;17.984;2023-06-04T14:32:37;2.70;;;1.70;;
79377;SDS011;68959;53.132;17.984;2023-06-04T14:35:04;3.10;;;2.10;;
79377;SDS011;68959;53.132;17.984;2023-06-04T14:37:30;5.00;;;1.90;;
79377;SDS011;68959;53.132;17.984;2023-06-04T14:39:56;5.20;;;1.70;;